createdAt,value
2019-04-30T00:00:59.663Z,5.37
2019-04-30T00:03:35.245Z,5.03
2019-04-30T00:06:07.226Z,6.00
2019-04-30T00:08:39.136Z,5.53
2019-04-30T00:11:10.885Z,5.22
2019-04-30T00:13:39.064Z,5.15
2019-04-30T00:16:08.775Z,6.80
2019-04-30T00:18:39.737Z,6.28
2019-04-30T00:21:14.156Z,5.00
2019-04-30T00:23:41.385Z,5.70
2019-04-30T00:26:11.249Z,5.70
2019-04-30T00:28:46.240Z,5.22
2019-04-30T00:31:17.609Z,6.92
2019-04-30T00:33:44.952Z,5.55
2019-04-30T00:36:17.199Z,5.12
2019-04-30T00:38:46.364Z,4.95
2019-04-30T00:41:16.881Z,5.37
2019-04-30T00:43:49.817Z,5.35
2019-04-30T00:46:25.460Z,4.75
2019-04-30T00:48:49.611Z,6.08
2019-04-30T00:51:21.447Z,6.62
2019-04-30T00:53:52.337Z,5.33
2019-04-30T00:56:24.607Z,4.40
2019-04-30T00:58:55.425Z,4.67
2019-04-30T01:01:52.815Z,4.85
2019-04-30T01:04:29.061Z,4.33
2019-04-30T01:07:00.221Z,5.70
2019-04-30T01:09:30.540Z,5.30
2019-04-30T01:12:00.270Z,5.80
2019-04-30T01:14:31.944Z,5.33
2019-04-30T01:17:03.916Z,4.92
2019-04-30T01:19:33.431Z,5.97
2019-04-30T01:22:03.205Z,6.37
2019-04-30T01:24:33.739Z,7.10
2019-04-30T01:27:06.788Z,5.75
2019-04-30T01:29:40.761Z,4.90
2019-04-30T01:32:10.527Z,5.95
2019-04-30T01:34:39.530Z,5.53
2019-04-30T01:37:09.349Z,5.90
2019-04-30T01:39:39.203Z,6.37
2019-04-30T01:42:11.336Z,6.30
2019-04-30T01:44:43.455Z,5.70
2019-04-30T01:47:11.776Z,4.92
2019-04-30T01:49:44.413Z,5.53
2019-04-30T01:52:12.907Z,5.90
2019-04-30T01:54:42.648Z,5.20
2019-04-30T01:57:23.492Z,5.45
2019-04-30T02:00:06.405Z,6.03
2019-04-30T02:02:39.453Z,6.03
2019-04-30T02:05:09.319Z,5.03
2019-04-30T02:07:40.370Z,6.62
2019-04-30T02:10:18.574Z,5.37
2019-04-30T02:12:51.478Z,5.70
2019-04-30T02:15:26.428Z,6.67
2019-04-30T02:17:58.759Z,5.28
2019-04-30T02:20:30.895Z,6.60
2019-04-30T02:23:04.593Z,6.12
2019-04-30T02:25:39.904Z,5.97
2019-04-30T02:28:12.070Z,5.65
2019-04-30T02:30:50.069Z,5.62
2019-04-30T02:33:21.211Z,4.65
2019-04-30T02:36:10.325Z,5.85
2019-04-30T02:38:44.108Z,6.42
2019-04-30T02:41:14.279Z,5.65
2019-04-30T02:43:44.573Z,5.72
2019-04-30T02:46:16.031Z,5.50
2019-04-30T02:48:50.056Z,5.60
2019-04-30T02:51:22.852Z,5.55
2019-04-30T02:54:23.636Z,6.42
2019-04-30T02:56:55.993Z,6.05
2019-04-30T02:59:25.648Z,5.10
2019-04-30T03:01:55.437Z,6.08
2019-04-30T03:04:25.193Z,5.28
2019-04-30T03:06:54.838Z,4.87
2019-04-30T03:09:24.508Z,5.20
2019-04-30T03:11:54.154Z,5.70
2019-04-30T03:14:23.779Z,4.00
2019-04-30T03:17:10.511Z,4.72
2019-04-30T03:19:46.025Z,5.12
2019-04-30T03:22:20.331Z,6.33
2019-04-30T03:24:50.352Z,5.50
2019-04-30T03:27:21.024Z,5.53
2019-04-30T03:29:51.827Z,4.33
2019-04-30T03:32:22.662Z,4.60
2019-04-30T03:34:52.499Z,5.42
2019-04-30T03:37:22.279Z,4.80
2019-04-30T03:39:52.191Z,5.25
2019-04-30T03:42:21.829Z,4.78
2019-04-30T03:44:51.446Z,5.37
2019-04-30T03:47:21.130Z,5.72
2019-04-30T03:49:50.857Z,5.20
2019-04-30T03:52:20.533Z,5.15
2019-04-30T03:54:50.403Z,4.92
2019-04-30T03:57:20.608Z,6.30
2019-04-30T03:59:50.670Z,5.83
2019-04-30T04:02:59.760Z,5.33
2019-04-30T04:05:50.088Z,4.10
2019-04-30T04:08:45.288Z,5.20
2019-04-30T04:11:24.132Z,4.47
2019-04-30T04:13:53.499Z,4.80
2019-04-30T04:16:22.913Z,4.60
2019-04-30T04:18:52.276Z,6.05
2019-04-30T04:21:21.634Z,5.10
2019-04-30T04:23:51.909Z,4.60
2019-04-30T04:26:21.271Z,4.75
2019-04-30T04:28:50.650Z,5.10
2019-04-30T04:31:20.342Z,5.15
2019-04-30T04:33:52.581Z,4.10
2019-04-30T04:36:20.762Z,4.75
2019-04-30T04:38:50.855Z,4.25
2019-04-30T04:41:20.330Z,4.00
2019-04-30T04:43:50.345Z,4.78
2019-04-30T04:46:20.536Z,4.22
2019-04-30T04:48:50.070Z,4.90
2019-04-30T04:51:31.312Z,4.10
2019-04-30T04:53:50.502Z,4.10
2019-04-30T04:56:19.861Z,4.67
2019-04-30T04:58:50.248Z,5.20
2019-04-30T05:01:20.524Z,4.58
2019-04-30T05:03:49.906Z,4.30
2019-04-30T05:06:21.897Z,5.85
2019-04-30T05:08:51.478Z,4.58
2019-04-30T05:11:20.898Z,6.50
2019-04-30T05:13:50.401Z,5.20
2019-04-30T05:16:19.771Z,5.97
2019-04-30T05:18:49.150Z,5.17
2019-04-30T05:21:18.889Z,5.62
2019-04-30T05:23:49.209Z,5.12
2019-04-30T05:26:19.182Z,4.72
2019-04-30T05:28:51.120Z,3.92
2019-04-30T05:31:21.075Z,4.85
2019-04-30T05:33:50.573Z,5.05
2019-04-30T05:36:20.076Z,5.15
2019-04-30T05:38:49.448Z,5.58
2019-04-30T05:41:19.283Z,4.30
2019-04-30T05:43:48.979Z,5.95
2019-04-30T05:46:19.632Z,4.60
2019-04-30T05:48:49.593Z,4.87
2019-04-30T05:51:21.172Z,5.12
2019-04-30T05:53:50.044Z,5.70
2019-04-30T05:56:19.484Z,4.17
2019-04-30T05:58:49.434Z,7.55
2019-04-30T06:01:19.637Z,5.00
2019-04-30T06:03:49.342Z,5.85
2019-04-30T06:06:19.359Z,17.10
2019-04-30T06:09:18.758Z,6.08
2019-04-30T06:12:12.672Z,7.20
2019-04-30T06:14:49.178Z,5.25
2019-04-30T06:17:20.006Z,4.08
2019-04-30T06:19:51.461Z,6.97
2019-04-30T06:22:20.834Z,4.47
2019-04-30T06:24:50.205Z,5.25
2019-04-30T06:27:19.938Z,5.55
2019-04-30T06:29:49.513Z,4.45
2019-04-30T06:32:18.964Z,4.85
2019-04-30T06:34:49.884Z,4.10
2019-04-30T06:37:19.707Z,5.28
2019-04-30T06:39:50.106Z,5.95
2019-04-30T06:42:19.647Z,6.62
2019-04-30T06:44:49.527Z,5.30
2019-04-30T06:47:31.982Z,4.55
2019-04-30T06:49:50.134Z,5.08
2019-04-30T06:52:23.011Z,3.70
2019-04-30T06:54:50.758Z,4.22
2019-04-30T06:57:20.128Z,5.33
2019-04-30T06:59:51.575Z,6.65
2019-04-30T07:02:21.082Z,4.17
2019-04-30T07:04:50.420Z,4.67
2019-04-30T07:07:23.024Z,4.87
2019-04-30T07:10:16.779Z,6.92
2019-04-30T07:13:10.226Z,6.87
2019-04-30T07:15:39.698Z,3.58
2019-04-30T07:18:09.151Z,2.95
2019-04-30T07:20:38.797Z,4.50
2019-04-30T07:23:09.348Z,4.70
2019-04-30T07:25:39.166Z,3.60
2019-04-30T07:28:09.051Z,3.85
2019-04-30T07:30:39.620Z,4.00
2019-04-30T07:33:09.536Z,3.98
2019-04-30T07:35:39.951Z,3.67
2019-04-30T07:38:09.499Z,3.25
2019-04-30T07:40:39.109Z,3.85
2019-04-30T07:43:09.072Z,3.70
2019-04-30T07:45:39.763Z,4.67
2019-04-30T07:48:09.455Z,4.42
2019-04-30T07:50:40.958Z,3.70
2019-04-30T07:53:11.584Z,4.20
2019-04-30T07:55:40.944Z,3.40
2019-04-30T07:58:10.332Z,3.83
2019-04-30T08:00:40.345Z,3.37
2019-04-30T08:03:41.201Z,4.90
2019-04-30T08:06:10.980Z,3.33
2019-04-30T08:08:40.925Z,3.58
2019-04-30T08:11:23.147Z,4.50
2019-04-30T08:13:42.318Z,2.67
2019-04-30T08:16:12.095Z,3.33
2019-04-30T08:18:41.605Z,3.50
2019-04-30T08:21:10.968Z,3.60
2019-04-30T08:23:40.360Z,3.02
2019-04-30T08:26:09.862Z,2.42
2019-04-30T08:28:39.247Z,3.12
2019-04-30T08:31:09.068Z,2.98
2019-04-30T08:33:40.250Z,2.98
2019-04-30T08:36:09.725Z,3.95
2019-04-30T08:38:39.527Z,2.70
2019-04-30T08:41:09.441Z,3.22
2019-04-30T08:43:39.426Z,3.92
2019-04-30T08:46:09.421Z,3.40
2019-04-30T08:48:49.956Z,3.92
2019-04-30T08:51:13.130Z,3.35
2019-04-30T08:53:41.382Z,2.83
2019-04-30T08:56:10.719Z,3.00
2019-04-30T08:58:40.072Z,2.85
2019-04-30T09:01:09.862Z,3.00
2019-04-30T09:03:39.358Z,3.05
2019-04-30T09:06:13.325Z,2.77
2019-04-30T09:08:44.057Z,3.15
2019-04-30T09:11:22.387Z,3.08
2019-04-30T09:13:44.581Z,2.83
2019-04-30T09:16:13.939Z,2.50
2019-04-30T09:18:43.334Z,2.70
2019-04-30T09:21:12.710Z,2.62
2019-04-30T09:23:49.367Z,2.20
2019-04-30T09:26:13.216Z,2.72
2019-04-30T09:28:42.580Z,3.25
2019-04-30T09:31:12.006Z,2.42
2019-04-30T09:33:41.361Z,2.42
2019-04-30T09:36:10.760Z,2.67
2019-04-30T09:38:40.171Z,2.58
2019-04-30T09:41:09.568Z,3.30
2019-04-30T09:43:40.510Z,2.85
2019-04-30T09:46:22.111Z,2.22
2019-04-30T09:48:41.017Z,3.00
2019-04-30T09:51:11.152Z,2.37
2019-04-30T09:53:40.943Z,1.90
2019-04-30T09:56:10.471Z,2.95
2019-04-30T09:58:39.914Z,2.72
2019-04-30T10:01:09.509Z,2.90
2019-04-30T10:03:39.688Z,2.58
2019-04-30T10:06:09.414Z,2.83
2019-04-30T10:08:47.932Z,2.87
2019-04-30T10:11:16.458Z,2.00
2019-04-30T10:13:45.839Z,3.37
2019-04-30T10:16:34.170Z,2.25
2019-04-30T10:19:03.530Z,2.92
2019-04-30T10:21:33.023Z,2.47
2019-04-30T10:24:12.333Z,3.00
2019-04-30T10:26:33.414Z,3.10
2019-04-30T10:29:03.604Z,3.07
2019-04-30T10:31:32.994Z,2.67
2019-04-30T10:34:02.420Z,3.00
2019-04-30T10:36:31.779Z,2.90
2019-04-30T10:39:01.181Z,2.63
2019-04-30T10:41:30.876Z,2.65
2019-04-30T10:44:00.303Z,2.77
2019-04-30T10:46:29.846Z,3.50
2019-04-30T10:48:59.257Z,2.30
2019-04-30T10:51:28.869Z,2.57
2019-04-30T10:53:59.159Z,2.93
2019-04-30T10:56:29.160Z,3.23
2019-04-30T10:58:58.564Z,3.07
2019-04-30T11:01:29.195Z,3.60
2019-04-30T11:03:58.643Z,3.30
2019-04-30T11:06:28.040Z,3.93
2019-04-30T11:08:57.373Z,2.73
2019-04-30T11:11:28.273Z,3.30
2019-04-30T11:13:57.758Z,2.83
2019-04-30T11:16:27.115Z,2.77
2019-04-30T11:18:56.650Z,2.77
2019-04-30T11:21:26.066Z,3.00
2019-04-30T11:23:55.792Z,2.90
2019-04-30T11:26:25.718Z,3.30
2019-04-30T11:28:55.490Z,3.30
2019-04-30T11:31:49.940Z,3.43
2019-04-30T11:34:19.416Z,3.00
2019-04-30T11:36:48.847Z,3.00
2019-04-30T11:39:21.607Z,3.47
2019-04-30T11:41:50.992Z,3.77
2019-04-30T11:44:35.992Z,3.63
2019-04-30T11:47:27.026Z,3.13
2019-04-30T11:49:56.452Z,3.70
2019-04-30T11:52:26.052Z,4.67
2019-04-30T11:54:55.457Z,4.20
2019-04-30T11:57:24.937Z,3.67
2019-04-30T11:59:54.338Z,3.47
2019-04-30T12:02:52.626Z,3.30
2019-04-30T12:05:20.794Z,3.67
2019-04-30T12:08:09.528Z,2.97
2019-04-30T12:10:52.046Z,3.00
2019-04-30T12:13:25.496Z,3.70
2019-04-30T12:15:55.264Z,3.30
2019-04-30T12:18:24.720Z,3.10
2019-04-30T12:20:54.153Z,3.43
2019-04-30T12:23:23.536Z,4.07
2019-04-30T12:25:53.083Z,2.90
2019-04-30T12:28:22.489Z,3.07
2019-04-30T12:30:51.861Z,3.27
2019-04-30T12:33:21.184Z,3.20
2019-04-30T12:35:51.338Z,3.90
2019-04-30T12:38:20.802Z,4.80
2019-04-30T12:40:50.164Z,3.10
2019-04-30T12:43:19.523Z,3.47
2019-04-30T12:46:01.988Z,3.50
2019-04-30T12:48:25.608Z,3.60
2019-04-30T12:51:12.025Z,3.50
2019-04-30T12:53:57.076Z,3.43
2019-04-30T12:56:37.671Z,3.77
2019-04-30T12:59:07.029Z,3.80
2019-04-30T13:01:36.409Z,3.40
2019-04-30T13:04:05.883Z,3.10
2019-04-30T13:06:35.716Z,4.37
2019-04-30T13:09:10.835Z,4.37
2019-04-30T13:11:41.173Z,4.10
2019-04-30T13:14:11.616Z,4.10
2019-04-30T13:16:41.432Z,3.87
2019-04-30T13:19:10.804Z,3.97
2019-04-30T13:21:40.252Z,2.80
2019-04-30T13:24:09.685Z,4.47
2019-04-30T13:26:39.651Z,3.73
2019-04-30T13:29:14.476Z,3.30
2019-04-30T13:31:43.818Z,3.33
2019-04-30T13:34:30.657Z,3.30
2019-04-30T13:36:59.966Z,3.60
2019-04-30T13:39:34.577Z,3.60
2019-04-30T13:42:22.869Z,3.07
2019-04-30T13:44:52.239Z,3.60
2019-04-30T13:47:21.595Z,3.70
2019-04-30T13:49:51.065Z,5.77
2019-04-30T13:52:20.438Z,3.47
2019-04-30T13:54:49.784Z,2.90
2019-04-30T13:57:19.155Z,3.37
2019-04-30T13:59:50.841Z,3.93
2019-04-30T14:02:19.544Z,3.80
2019-04-30T14:04:55.715Z,3.90
2019-04-30T14:07:42.711Z,3.70
2019-04-30T14:10:12.259Z,3.30
2019-04-30T14:12:47.184Z,3.87
2019-04-30T14:15:16.865Z,3.10
2019-04-30T14:17:46.292Z,4.67
2019-04-30T14:20:15.661Z,3.70
2019-04-30T14:22:44.988Z,3.30
2019-04-30T14:25:14.666Z,3.73
2019-04-30T14:27:52.162Z,4.00
2019-04-30T14:30:15.455Z,5.20
2019-04-30T14:32:44.808Z,3.80
2019-04-30T14:35:14.289Z,3.30
2019-04-30T14:37:43.629Z,3.70
2019-04-30T14:40:14.199Z,3.40
2019-04-30T14:42:59.870Z,3.27
2019-04-30T14:45:36.395Z,3.50
2019-04-30T14:48:12.317Z,4.70
2019-04-30T14:50:42.042Z,3.90
2019-04-30T14:53:20.472Z,3.70
2019-04-30T14:56:14.808Z,3.87
2019-04-30T14:59:03.133Z,4.30
2019-04-30T15:01:45.833Z,4.10
2019-04-30T15:04:15.237Z,7.30
2019-04-30T15:06:44.576Z,4.27
2019-04-30T15:09:13.969Z,4.30
2019-04-30T15:11:43.424Z,8.47
2019-04-30T15:14:12.793Z,3.93
2019-04-30T15:16:42.168Z,4.77
2019-04-30T15:19:11.650Z,5.60
2019-04-30T15:21:41.014Z,7.30
2019-04-30T15:24:29.221Z,8.63
2019-04-30T15:26:58.696Z,4.70
2019-04-30T15:29:29.111Z,9.10
2019-04-30T15:31:59.238Z,5.20
2019-04-30T15:34:29.377Z,4.50
2019-04-30T15:36:59.232Z,3.00
2019-04-30T15:39:34.735Z,3.93
2019-04-30T15:42:04.304Z,3.50
2019-04-30T15:44:40.028Z,3.80
2019-04-30T15:47:05.597Z,3.50
2019-04-30T15:49:35.153Z,4.00
2019-04-30T15:52:04.928Z,3.60
2019-04-30T15:54:34.271Z,4.23
2019-04-30T15:57:03.629Z,3.30
2019-04-30T15:59:51.992Z,3.57
2019-04-30T16:02:53.604Z,3.10
2019-04-30T16:05:30.781Z,3.30
2019-04-30T16:08:18.983Z,2.80
2019-04-30T16:11:10.341Z,3.97
2019-04-30T16:14:12.422Z,3.60
2019-04-30T16:16:44.331Z,3.60
2019-04-30T16:19:13.685Z,3.27
2019-04-30T16:21:43.028Z,3.70
2019-04-30T16:24:12.476Z,3.80
2019-04-30T16:26:49.611Z,2.70
2019-04-30T16:29:12.808Z,3.60
2019-04-30T16:31:42.140Z,3.73
2019-04-30T16:34:11.472Z,3.50
2019-04-30T16:36:40.840Z,3.83
2019-04-30T16:39:10.589Z,3.60
2019-04-30T16:41:40.784Z,3.50
2019-04-30T16:44:10.277Z,3.37
2019-04-30T16:46:39.621Z,4.00
2019-04-30T16:49:10.207Z,4.50
2019-04-30T16:51:40.011Z,3.70
2019-04-30T16:54:09.343Z,3.20
2019-04-30T16:56:38.841Z,4.33
2019-04-30T16:59:10.156Z,3.10
2019-04-30T17:01:39.489Z,3.60
2019-04-30T17:04:16.492Z,4.27
2019-04-30T17:06:50.643Z,3.27
2019-04-30T17:09:26.604Z,4.53
2019-04-30T17:12:04.267Z,3.53
2019-04-30T17:14:34.442Z,3.07
2019-04-30T17:17:03.777Z,4.40
2019-04-30T17:19:33.133Z,3.40
2019-04-30T17:22:02.481Z,3.30
2019-04-30T17:24:31.864Z,4.40
2019-04-30T17:27:01.206Z,3.30
2019-04-30T17:29:30.924Z,3.37
2019-04-30T17:32:00.256Z,2.73
2019-04-30T17:34:30.921Z,3.90
2019-04-30T17:37:00.260Z,2.90
2019-04-30T17:39:29.592Z,3.83
2019-04-30T17:41:58.924Z,4.50
2019-04-30T17:44:28.922Z,3.70
2019-04-30T17:46:59.994Z,3.70
2019-04-30T17:49:29.509Z,4.27
2019-04-30T17:51:59.240Z,4.27
2019-04-30T17:54:28.614Z,3.63
2019-04-30T17:56:57.976Z,5.27
2019-04-30T17:59:27.307Z,4.20
2019-04-30T18:02:00.560Z,3.87
2019-04-30T18:04:30.102Z,4.17
2019-04-30T18:06:59.644Z,4.30
2019-04-30T18:09:29.288Z,3.83
2019-04-30T18:11:59.575Z,3.97
2019-04-30T18:14:28.978Z,4.10
2019-04-30T18:16:59.447Z,3.58
2019-04-30T18:20:05.801Z,5.42
2019-04-30T18:22:52.381Z,3.30
2019-04-30T18:25:39.112Z,3.50
2019-04-30T18:28:09.147Z,4.00
2019-04-30T18:30:39.253Z,4.55
2019-04-30T18:33:09.857Z,4.17
2019-04-30T18:35:39.361Z,3.85
2019-04-30T18:38:09.751Z,4.72
2019-04-30T18:40:39.834Z,3.77
2019-04-30T18:43:09.279Z,3.75
2019-04-30T18:45:39.611Z,4.17
2019-04-30T18:48:09.726Z,5.17
2019-04-30T18:50:39.159Z,4.08
2019-04-30T18:53:14.791Z,4.78
2019-04-30T18:55:44.130Z,5.12
2019-04-30T18:58:13.514Z,5.08
2019-04-30T19:00:45.275Z,5.35
2019-04-30T19:03:14.626Z,6.55
2019-04-30T19:05:49.133Z,6.30
2019-04-30T19:08:35.772Z,7.15
2019-04-30T19:11:39.685Z,6.30
2019-04-30T19:14:26.511Z,7.03
2019-04-30T19:17:13.192Z,7.30
2019-04-30T19:19:49.678Z,7.85
2019-04-30T19:22:19.022Z,7.83
2019-04-30T19:24:56.181Z,9.20
2019-04-30T19:27:19.476Z,8.93
2019-04-30T19:29:49.111Z,9.85
2019-04-30T19:32:19.808Z,9.88
2019-04-30T19:34:49.183Z,8.85
2019-04-30T19:37:19.685Z,8.90
2019-04-30T19:39:51.088Z,10.98
2019-04-30T19:42:20.004Z,10.45
2019-04-30T19:44:57.190Z,10.30
2019-04-30T19:47:20.366Z,10.78
2019-04-30T19:49:49.752Z,12.63
2019-04-30T19:52:19.386Z,10.65
2019-04-30T19:54:48.889Z,10.53
2019-04-30T19:57:19.103Z,10.38
2019-04-30T19:59:49.162Z,9.00
2019-04-30T20:02:19.110Z,11.18
2019-04-30T20:04:49.642Z,9.33
2019-04-30T20:07:19.545Z,10.60
2019-04-30T20:10:00.591Z,10.80
2019-04-30T20:12:20.061Z,10.45
2019-04-30T20:14:49.651Z,10.20
2019-04-30T20:17:19.465Z,10.68
2019-04-30T20:19:49.049Z,9.83
2019-04-30T20:22:19.644Z,10.43
2019-04-30T20:24:49.263Z,10.88
2019-04-30T20:27:19.005Z,9.70
2019-04-30T20:29:51.458Z,10.45
2019-04-30T20:32:27.486Z,10.70
2019-04-30T20:34:50.525Z,10.63
2019-04-30T20:37:19.996Z,12.18
2019-04-30T20:39:54.251Z,10.75
2019-04-30T20:42:23.625Z,10.50
2019-04-30T20:44:52.976Z,10.53
2019-04-30T20:47:22.373Z,8.70
2019-04-30T20:49:51.734Z,8.58
2019-04-30T20:52:21.084Z,9.33
2019-04-30T20:54:50.432Z,9.05
2019-04-30T20:57:20.042Z,10.65
2019-04-30T20:59:49.406Z,9.25
2019-04-30T21:02:20.447Z,10.20
2019-04-30T21:04:49.907Z,10.28
2019-04-30T21:07:19.548Z,10.45
2019-04-30T21:09:48.952Z,11.57
2019-04-30T21:12:18.731Z,9.70
2019-04-30T21:14:48.584Z,10.32
2019-04-30T21:17:18.003Z,10.03
2019-04-30T21:19:47.353Z,9.83
2019-04-30T21:22:16.722Z,10.68
2019-04-30T21:24:46.081Z,12.33
2019-04-30T21:27:15.581Z,10.90
2019-04-30T21:29:45.799Z,9.15
2019-04-30T21:32:24.424Z,10.00
2019-04-30T21:35:00.642Z,10.60
2019-04-30T21:37:30.003Z,9.68
2019-04-30T21:39:59.369Z,9.55
2019-04-30T21:42:28.978Z,9.28
2019-04-30T21:44:58.343Z,9.53
2019-04-30T21:47:27.677Z,9.13
2019-04-30T21:49:57.016Z,10.78
2019-04-30T21:52:27.209Z,9.43
2019-04-30T21:54:56.699Z,12.53
2019-04-30T21:57:26.041Z,11.65
2019-04-30T21:59:55.371Z,11.60
2019-04-30T22:05:00.101Z,10.48
2019-04-30T22:07:29.547Z,9.68
2019-04-30T22:09:58.931Z,10.38
2019-04-30T22:12:28.422Z,8.43
2019-04-30T22:14:59.283Z,9.35
2019-04-30T22:17:29.268Z,9.20
2019-04-30T22:19:59.614Z,9.53
2019-04-30T22:22:29.237Z,9.50
2019-04-30T22:24:59.702Z,9.20
2019-04-30T22:27:29.305Z,8.95
2019-04-30T22:29:58.650Z,8.43
2019-04-30T22:32:28.012Z,8.13
2019-04-30T22:35:09.828Z,9.05
2019-04-30T22:37:39.214Z,10.00
2019-04-30T22:40:09.337Z,9.38
2019-04-30T22:42:39.951Z,10.10
2019-04-30T22:45:28.152Z,9.58
2019-04-30T22:47:58.887Z,8.35
2019-04-30T22:50:28.424Z,9.95
2019-04-30T22:52:57.834Z,9.48
2019-04-30T22:55:27.299Z,9.20
2019-04-30T22:57:56.696Z,9.10
2019-04-30T23:00:45.341Z,9.65
2019-04-30T23:03:19.233Z,9.23
2019-04-30T23:05:48.593Z,8.18
2019-04-30T23:08:17.999Z,9.13
2019-04-30T23:10:47.394Z,8.70
2019-04-30T23:13:16.729Z,7.60
2019-04-30T23:15:46.124Z,10.05
2019-04-30T23:18:15.644Z,10.55
2019-04-30T23:20:44.993Z,9.33
2019-04-30T23:23:14.389Z,8.63
2019-04-30T23:25:43.777Z,9.38
2019-04-30T23:28:13.155Z,8.50
2019-04-30T23:30:42.655Z,10.35
2019-04-30T23:33:12.093Z,10.28
2019-04-30T23:35:41.481Z,9.73
2019-04-30T23:38:10.983Z,11.28
2019-04-30T23:40:50.557Z,11.08
2019-04-30T23:43:20.640Z,10.30
2019-04-30T23:45:50.004Z,11.22
2019-04-30T23:48:19.414Z,10.90
2019-04-30T23:50:48.770Z,10.70
2019-04-30T23:53:18.222Z,12.50
2019-04-30T23:55:47.680Z,12.03
2019-04-30T23:58:17.108Z,12.63
